createdAt,value
2023-10-24T00:01:39.750Z,8.10
2023-10-24T00:04:23.641Z,8.20
2023-10-24T00:07:53.697Z,8.30
2023-10-24T00:11:09.315Z,8.03
2023-10-24T00:14:10.062Z,8.05
2023-10-24T00:17:27.783Z,8.12
2023-10-24T00:20:14.308Z,8.19
2023-10-24T00:23:58.487Z,8.14
2023-10-24T00:27:38.378Z,8.11
2023-10-24T00:31:43.947Z,8.03
2023-10-24T00:34:47.357Z,8.02
2023-10-24T00:38:09.909Z,8.14
2023-10-24T00:41:35.690Z,8.13
2023-10-24T00:44:34.229Z,8.24
2023-10-24T00:48:02.946Z,8.25
2023-10-24T00:55:06.011Z,8.04
2023-10-24T00:58:13.360Z,8.41
2023-10-24T01:01:42.234Z,8.32
2023-10-24T01:04:49.039Z,8.38
2023-10-24T01:08:14.590Z,8.36
2023-10-24T01:12:38.306Z,8.23
2023-10-24T01:19:34.011Z,8.16
2023-10-24T01:22:46.496Z,8.13
2023-10-24T01:26:18.642Z,8.14
2023-10-24T01:29:16.821Z,8.23
2023-10-24T01:36:25.347Z,8.18
2023-10-24T01:39:41.772Z,8.28
2023-10-24T01:42:56.514Z,8.15
2023-10-24T01:45:50.908Z,8.05
2023-10-24T01:48:46.211Z,8.05
2023-10-24T01:52:34.167Z,8.10
2023-10-24T01:56:37.420Z,7.93
2023-10-24T01:59:55.383Z,8.03
2023-10-24T02:05:52.601Z,8.13
2023-10-24T02:08:59.829Z,8.28
2023-10-24T02:11:42.994Z,8.26
2023-10-24T02:15:34.444Z,8.17
2023-10-24T02:18:38.694Z,8.08
2023-10-24T02:21:38.126Z,8.18
2023-10-24T02:25:06.031Z,8.29
2023-10-24T02:29:01.254Z,8.16
2023-10-24T02:31:52.916Z,7.94
2023-10-24T02:35:17.933Z,8.06
2023-10-24T02:42:54.996Z,8.09
2023-10-24T02:46:07.436Z,8.16
2023-10-24T02:49:13.621Z,8.12
2023-10-24T02:52:36.408Z,8.02
2023-10-24T02:55:54.765Z,7.99
2023-10-24T02:58:49.655Z,7.94
2023-10-24T03:01:26.690Z,8.20
2023-10-24T03:04:40.575Z,8.06
2023-10-24T03:08:40.804Z,7.80
2023-10-24T03:11:51.252Z,7.89
2023-10-24T03:14:50.405Z,8.13
2023-10-24T03:18:20.224Z,8.07
2023-10-24T03:21:36.830Z,7.95
2023-10-24T03:27:55.045Z,7.87
2023-10-24T03:30:44.640Z,8.14
2023-10-24T03:33:49.021Z,8.19
2023-10-24T03:37:28.549Z,8.19
2023-10-24T03:43:21.318Z,8.20
2023-10-24T03:47:03.913Z,8.16
2023-10-24T03:50:07.744Z,8.17
2023-10-24T03:53:04.521Z,8.39
2023-10-24T03:56:37.204Z,8.21
2023-10-24T04:00:26.417Z,8.43
2023-10-24T04:03:28.140Z,8.43
2023-10-24T04:13:44.900Z,8.54
2023-10-24T04:16:55.634Z,8.35
2023-10-24T04:20:39.078Z,8.37
2023-10-24T04:24:18.698Z,8.20
2023-10-24T04:27:31.454Z,8.27
2023-10-24T04:30:39.309Z,8.42
2023-10-24T04:34:01.708Z,8.32
2023-10-24T04:36:44.759Z,8.26
2023-10-24T04:39:45.760Z,8.17
2023-10-24T04:42:56.012Z,8.10
2023-10-24T04:46:05.733Z,8.18
2023-10-24T04:49:09.942Z,8.17
2023-10-24T04:52:22.593Z,8.18
2023-10-24T04:55:25.434Z,8.29
2023-10-24T04:58:43.490Z,8.20
2023-10-24T05:01:45.077Z,8.13
2023-10-24T05:04:47.825Z,8.13
2023-10-24T05:07:55.591Z,8.12
2023-10-24T05:14:57.428Z,8.03
2023-10-24T05:18:18.121Z,8.02
2023-10-24T05:21:29.045Z,8.03
2023-10-24T05:24:38.670Z,8.04
2023-10-24T05:27:36.805Z,8.24
2023-10-24T05:30:46.027Z,8.27
2023-10-24T05:33:43.087Z,8.18
2023-10-24T05:36:46.687Z,8.23
2023-10-24T05:40:42.536Z,8.18
2023-10-24T05:44:11.290Z,8.06
2023-10-24T05:50:10.563Z,8.10
2023-10-24T05:51:30.707Z,8.05
2023-10-24T05:54:31.926Z,8.15
2023-10-24T05:57:21.880Z,8.09
2023-10-24T06:02:58.224Z,8.17
2023-10-24T06:06:11.292Z,8.14
2023-10-24T06:09:16.883Z,8.21
2023-10-24T06:12:31.063Z,8.08
2023-10-24T06:15:36.954Z,8.02
2023-10-24T06:21:53.867Z,8.12
2023-10-24T06:25:20.703Z,8.12
2023-10-24T06:28:09.966Z,8.15
2023-10-24T06:30:57.264Z,8.22
2023-10-24T06:33:38.916Z,8.23
2023-10-24T06:36:19.866Z,8.23
2023-10-24T06:39:14.895Z,8.30
2023-10-24T06:42:02.386Z,8.38
2023-10-24T06:45:00.992Z,8.28
2023-10-24T06:47:59.027Z,8.21
2023-10-24T06:50:49.934Z,8.18
2023-10-24T06:53:31.883Z,8.05
2023-10-24T06:56:12.543Z,8.08
2023-10-24T06:59:11.236Z,8.06
2023-10-24T07:02:41.795Z,8.02
2023-10-24T07:05:22.096Z,7.97
2023-10-24T07:08:09.239Z,8.06
2023-10-24T07:10:44.839Z,8.10
2023-10-24T07:13:30.993Z,7.98
2023-10-24T07:20:22.006Z,7.89
2023-10-24T07:26:50.692Z,7.72
2023-10-24T07:29:47.172Z,7.70
2023-10-24T07:32:50.188Z,7.62
2023-10-24T07:35:53.690Z,7.57
2023-10-24T07:38:46.648Z,7.77
2023-10-24T07:44:23.466Z,7.62
2023-10-24T07:47:37.490Z,7.58
2023-10-24T07:50:26.258Z,7.57
2023-10-24T07:53:28.003Z,7.67
2023-10-24T07:56:16.617Z,7.56
2023-10-24T07:59:21.648Z,7.78
2023-10-24T08:02:31.606Z,7.80
2023-10-24T08:05:04.620Z,7.66
2023-10-24T08:07:43.874Z,7.67
2023-10-24T08:10:28.695Z,7.88
2023-10-24T08:13:25.994Z,7.65
2023-10-24T08:16:22.811Z,7.59
2023-10-24T08:19:02.598Z,7.68
2023-10-24T08:21:47.045Z,7.65
2023-10-24T08:24:31.824Z,7.66
2023-10-24T08:27:24.407Z,7.62
2023-10-24T08:29:56.151Z,7.64
2023-10-24T08:32:54.416Z,7.68
2023-10-24T08:35:57.343Z,7.55
2023-10-24T08:38:36.684Z,7.38
2023-10-24T08:41:16.238Z,7.68
2023-10-24T08:44:02.295Z,7.44
2023-10-24T08:46:37.688Z,7.25
2023-10-24T08:49:23.895Z,7.25
2023-10-24T08:52:26.579Z,7.11
2023-10-24T08:55:14.351Z,7.06
2023-10-24T08:57:53.116Z,7.09
2023-10-24T09:00:58.189Z,7.03
2023-10-24T09:03:39.971Z,6.94
2023-10-24T09:06:37.505Z,6.90
2023-10-24T09:09:14.605Z,6.84
2023-10-24T09:12:06.756Z,6.66
2023-10-24T09:14:55.124Z,6.66
2023-10-24T09:17:46.637Z,6.37
2023-10-24T09:20:35.465Z,6.31
2023-10-24T09:23:13.142Z,6.32
2023-10-24T09:25:49.999Z,6.35
2023-10-24T09:28:31.534Z,6.36
2023-10-24T09:31:09.373Z,6.33
2023-10-24T09:33:58.906Z,6.57
2023-10-24T09:36:34.491Z,6.23
2023-10-24T09:39:28.309Z,6.11
2023-10-24T09:42:15.535Z,6.17
2023-10-24T09:47:45.428Z,5.98
2023-10-24T09:50:27.192Z,5.92
2023-10-24T09:53:05.164Z,5.97
2023-10-24T09:56:01.803Z,5.83
2023-10-24T09:59:21.862Z,5.72
2023-10-24T10:06:07.577Z,5.65
2023-10-24T10:13:04.778Z,5.79
2023-10-24T10:16:16.789Z,6.04
2023-10-24T10:19:31.272Z,6.08
2023-10-24T10:22:52.286Z,6.01
2023-10-24T10:26:03.549Z,6.16
2023-10-24T10:30:16.598Z,6.07
2023-10-24T10:42:22.223Z,6.17
2023-10-24T10:45:45.506Z,6.12
2023-10-24T10:49:15.103Z,6.08
2023-10-24T10:53:15.541Z,5.92
2023-10-24T10:57:26.046Z,6.07
2023-10-24T11:00:55.732Z,6.02
2023-10-24T11:08:03.475Z,5.85
2023-10-24T11:15:05.767Z,5.77
2023-10-24T11:21:01.725Z,6.55
2023-10-24T11:24:46.452Z,6.28
2023-10-24T11:41:54.985Z,5.85
2023-10-24T11:45:05.458Z,6.05
2023-10-24T11:47:57.972Z,5.95
2023-10-24T11:51:13.260Z,6.23
2023-10-24T11:54:54.746Z,6.21
2023-10-24T11:58:36.984Z,6.16
2023-10-24T12:01:46.375Z,5.96
2023-10-24T12:04:40.439Z,6.04
2023-10-24T12:07:18.081Z,5.99
2023-10-24T12:09:57.661Z,6.01
2023-10-24T12:12:49.421Z,6.14
2023-10-24T12:15:41.536Z,6.13
2023-10-24T12:19:01.805Z,5.91
2023-10-24T12:22:04.384Z,6.04
2023-10-24T12:25:41.459Z,6.07
2023-10-24T12:28:48.316Z,6.11
2023-10-24T12:32:06.879Z,5.93
2023-10-24T12:34:55.818Z,5.83
2023-10-24T12:37:40.893Z,5.84
2023-10-24T12:40:51.126Z,5.95
2023-10-24T12:43:46.817Z,5.84
2023-10-24T12:46:22.863Z,5.84
2023-10-24T12:49:43.700Z,5.88
2023-10-24T12:52:51.501Z,5.92
2023-10-24T12:55:25.717Z,6.04
2023-10-24T12:58:18.797Z,6.06
2023-10-24T13:01:00.064Z,6.04
2023-10-24T13:03:37.949Z,5.94
2023-10-24T13:06:15.009Z,6.13
2023-10-24T13:08:48.321Z,6.06
2023-10-24T13:11:21.568Z,6.08
2023-10-24T13:14:00.385Z,5.96
2023-10-24T13:19:20.958Z,5.97
2023-10-24T13:21:59.461Z,6.07
2023-10-24T13:24:38.380Z,5.90
2023-10-24T13:27:14.963Z,6.03
2023-10-24T13:33:03.582Z,5.91
2023-10-24T13:36:11.465Z,6.00
2023-10-24T13:38:57.026Z,6.09
2023-10-24T13:42:09.114Z,5.97
2023-10-24T13:44:41.191Z,5.80
2023-10-24T13:47:15.942Z,5.99
2023-10-24T13:49:49.345Z,6.02
2023-10-24T13:52:31.962Z,6.10
2023-10-24T13:55:16.474Z,6.14
2023-10-24T13:58:06.981Z,6.18
2023-10-24T14:00:45.192Z,6.14
2023-10-24T14:03:59.668Z,6.04
2023-10-24T14:06:37.648Z,6.00
2023-10-24T14:09:25.274Z,6.03
2023-10-24T14:12:03.896Z,6.14
2023-10-24T14:15:13.405Z,6.04
2023-10-24T14:18:00.534Z,5.96
2023-10-24T14:21:09.258Z,5.84
2023-10-24T14:23:41.487Z,6.04
2023-10-24T14:26:22.280Z,6.13
2023-10-24T14:28:57.358Z,6.12
2023-10-24T14:32:01.442Z,6.11
2023-10-24T14:34:48.276Z,6.05
2023-10-24T14:37:28.677Z,6.13
2023-10-24T14:43:37.932Z,5.94
2023-10-24T14:46:12.449Z,6.09
2023-10-24T15:14:30.405Z,6.25
2023-10-24T15:37:59.859Z,6.35
2023-10-24T15:46:09.264Z,6.46
2023-10-24T15:48:51.270Z,6.52
2023-10-24T15:51:52.387Z,6.68
2023-10-24T15:54:34.307Z,6.73
2023-10-24T15:57:15.081Z,6.58
2023-10-24T15:59:52.876Z,6.69
2023-10-24T16:02:37.798Z,6.72
2023-10-24T16:05:13.632Z,6.75
2023-10-24T16:08:08.786Z,6.67
2023-10-24T16:10:56.610Z,6.82
2023-10-24T16:14:03.317Z,6.81
2023-10-24T16:17:20.337Z,6.68
2023-10-24T16:20:09.364Z,6.87
2023-10-24T16:22:57.441Z,6.91
2023-10-24T16:26:07.873Z,6.80
2023-10-24T16:29:44.620Z,6.76
2023-10-24T16:33:02.514Z,6.80
2023-10-24T16:43:25.882Z,7.56
2023-10-24T16:52:57.144Z,8.26
2023-10-24T16:55:54.296Z,8.35
2023-10-24T16:59:16.776Z,8.31
2023-10-24T17:02:59.120Z,8.21
2023-10-24T17:05:59.118Z,8.38
2023-10-24T17:09:05.937Z,8.50
2023-10-24T17:12:05.066Z,8.31
2023-10-24T17:16:07.306Z,8.36
2023-10-24T17:18:55.744Z,8.37
2023-10-24T17:21:47.213Z,8.37
2023-10-24T17:24:59.193Z,8.09
2023-10-24T17:28:23.220Z,8.42
2023-10-24T17:32:47.596Z,8.14
2023-10-24T17:35:12.291Z,8.14
2023-10-24T17:39:31.675Z,8.28
2023-10-24T17:46:51.746Z,8.26
2023-10-24T17:53:45.761Z,8.50
2023-10-24T17:56:51.580Z,8.54
2023-10-24T18:03:48.036Z,8.46
2023-10-24T18:15:01.480Z,8.55
2023-10-24T18:18:10.591Z,8.31
2023-10-24T18:22:13.673Z,8.36
2023-10-24T18:26:01.223Z,8.45
2023-10-24T18:32:46.105Z,8.32
2023-10-24T18:40:11.186Z,8.29
2023-10-24T18:43:45.787Z,8.33
2023-10-24T19:03:58.928Z,8.16
2023-10-24T19:08:10.028Z,8.23
2023-10-24T19:11:31.364Z,8.06
2023-10-24T19:15:13.420Z,8.11
2023-10-24T20:16:35.585Z,8.32
2023-10-24T20:20:35.413Z,8.25
2023-10-24T20:24:42.597Z,8.11
2023-10-24T20:32:18.703Z,8.37
2023-10-24T21:14:35.494Z,8.37
2023-10-24T21:21:27.693Z,8.27
2023-10-24T21:24:24.262Z,8.29
2023-10-24T21:27:42.370Z,8.42
2023-10-24T21:38:38.970Z,8.38
2023-10-24T21:54:36.892Z,8.52
2023-10-24T21:57:48.876Z,8.46
2023-10-24T22:40:08.977Z,8.31
2023-10-24T22:43:43.631Z,8.38
2023-10-24T22:51:28.963Z,8.31
2023-10-24T23:12:26.765Z,8.20
2023-10-24T23:16:02.620Z,8.25
2023-10-24T23:30:45.557Z,8.32
2023-10-24T23:34:53.092Z,8.35
2023-10-24T23:38:30.134Z,8.28
2023-10-24T23:42:02.952Z,8.38
2023-10-24T23:53:48.798Z,8.79
